createdAt,value
2022-12-05T00:01:26.873Z,23.17
2022-12-05T00:03:57.274Z,22.97
2022-12-05T00:06:28.697Z,21.83
2022-12-05T00:08:57.465Z,22.67
2022-12-05T00:11:27.541Z,22.47
2022-12-05T00:13:56.668Z,22.87
2022-12-05T00:16:27.623Z,23.27
2022-12-05T00:18:56.039Z,23.07
2022-12-05T00:21:26.960Z,22.73
2022-12-05T00:23:56.656Z,22.07
2022-12-05T00:26:25.288Z,23.13
2022-12-05T00:28:54.257Z,22.43
2022-12-05T00:31:24.238Z,22.50
2022-12-05T00:33:52.944Z,21.93
2022-12-05T00:36:23.028Z,22.17
2022-12-05T00:38:52.970Z,24.10
2022-12-05T00:41:22.933Z,22.27
2022-12-05T00:43:51.359Z,21.63
2022-12-05T00:46:21.385Z,22.93
2022-12-05T00:48:49.654Z,23.97
2022-12-05T00:51:19.724Z,23.50
2022-12-05T00:53:48.765Z,24.13
2022-12-05T00:56:22.064Z,23.40
2022-12-05T00:58:51.106Z,22.63
2022-12-05T01:01:22.150Z,22.33
2022-12-05T01:03:52.592Z,22.23
2022-12-05T01:06:20.849Z,21.83
2022-12-05T01:08:48.941Z,22.10
2022-12-05T01:11:20.225Z,21.30
2022-12-05T01:13:48.678Z,22.40
2022-12-05T01:16:17.453Z,22.37
2022-12-05T01:18:45.544Z,22.00
2022-12-05T01:21:13.980Z,22.53
2022-12-05T01:23:41.889Z,21.47
2022-12-05T01:26:12.780Z,21.93
2022-12-05T01:28:43.071Z,21.87
2022-12-05T01:31:17.966Z,21.57
2022-12-05T01:33:46.017Z,22.33
2022-12-05T01:36:13.975Z,21.43
2022-12-05T01:38:43.340Z,22.10
2022-12-05T01:41:15.211Z,21.90
2022-12-05T01:43:59.982Z,22.40
2022-12-05T01:46:30.341Z,22.93
2022-12-05T01:49:02.597Z,22.23
2022-12-05T01:51:31.794Z,22.33
2022-12-05T01:54:00.425Z,22.73
2022-12-05T01:56:28.478Z,21.90
2022-12-05T01:58:58.066Z,22.53
2022-12-05T02:01:26.105Z,21.87
2022-12-05T02:03:57.400Z,21.50
2022-12-05T02:06:27.945Z,20.80
2022-12-05T02:08:55.767Z,22.87
2022-12-05T02:11:26.041Z,22.10
2022-12-05T02:14:19.755Z,22.27
2022-12-05T02:16:59.076Z,21.57
2022-12-05T02:20:04.934Z,21.90
2022-12-05T02:22:59.653Z,23.23
2022-12-05T02:25:51.685Z,24.03
2022-12-05T02:28:40.230Z,21.97
2022-12-05T02:31:13.598Z,22.30
2022-12-05T02:33:48.766Z,21.97
2022-12-05T02:36:23.154Z,22.07
2022-12-05T02:38:57.813Z,22.97
2022-12-05T02:41:29.500Z,22.83
2022-12-05T02:44:01.391Z,21.80
2022-12-05T02:46:33.367Z,23.27
2022-12-05T02:49:05.325Z,22.83
2022-12-05T02:51:37.148Z,21.37
2022-12-05T02:54:10.021Z,22.27
2022-12-05T02:56:39.855Z,22.80
2022-12-05T02:59:07.787Z,24.53
2022-12-05T03:01:37.252Z,23.37
2022-12-05T03:04:07.989Z,24.23
2022-12-05T03:06:41.208Z,22.80
2022-12-05T03:09:14.553Z,23.27
2022-12-05T03:11:48.093Z,23.77
2022-12-05T03:14:22.432Z,23.93
2022-12-05T03:16:54.367Z,23.93
2022-12-05T03:19:28.013Z,23.33
2022-12-05T03:22:01.479Z,22.80
2022-12-05T03:24:29.983Z,23.40
2022-12-05T03:27:07.882Z,23.07
2022-12-05T03:29:40.397Z,22.10
2022-12-05T03:32:16.762Z,22.80
2022-12-05T03:34:54.024Z,22.60
2022-12-05T03:37:31.624Z,20.87
2022-12-05T03:40:07.544Z,23.33
2022-12-05T03:42:41.548Z,22.00
2022-12-05T03:45:13.662Z,22.57
2022-12-05T03:47:51.666Z,22.97
2022-12-05T03:50:23.874Z,22.20
2022-12-05T03:53:19.242Z,22.30
2022-12-05T03:55:48.405Z,22.40
2022-12-05T03:58:21.806Z,21.57
2022-12-05T04:00:52.312Z,21.20
2022-12-05T04:03:28.201Z,22.03
2022-12-05T04:06:00.337Z,22.77
2022-12-05T04:08:33.086Z,22.70
2022-12-05T04:11:06.154Z,22.63
2022-12-05T04:13:38.876Z,21.93
2022-12-05T04:16:30.306Z,22.17
2022-12-05T04:19:04.403Z,21.20
2022-12-05T04:21:40.898Z,21.10
2022-12-05T04:24:29.809Z,21.37
2022-12-05T04:27:10.303Z,21.53
2022-12-05T04:29:46.274Z,20.40
2022-12-05T04:32:15.538Z,20.90
2022-12-05T04:34:51.864Z,20.67
2022-12-05T04:37:26.225Z,20.13
2022-12-05T04:40:00.036Z,20.07
2022-12-05T04:42:31.214Z,20.40
2022-12-05T04:45:04.588Z,21.10
2022-12-05T04:47:37.151Z,20.07
2022-12-05T04:50:11.296Z,20.77
2022-12-05T04:52:40.799Z,20.83
2022-12-05T04:55:13.416Z,19.70
2022-12-05T04:57:46.389Z,21.60
2022-12-05T05:00:14.903Z,20.63
2022-12-05T05:02:47.950Z,21.30
2022-12-05T05:05:19.858Z,21.93
2022-12-05T05:07:49.597Z,20.70
2022-12-05T05:10:21.012Z,21.17
2022-12-05T05:12:48.915Z,22.20
2022-12-05T05:15:17.068Z,22.20
2022-12-05T05:17:45.232Z,23.37
2022-12-05T05:20:25.608Z,20.97
2022-12-05T05:22:55.941Z,21.87
2022-12-05T05:25:23.977Z,22.57
2022-12-05T05:27:53.089Z,22.33
2022-12-05T05:30:22.102Z,23.23
2022-12-05T05:32:50.176Z,22.87
2022-12-05T05:35:18.153Z,22.83
2022-12-05T05:37:45.987Z,23.03
2022-12-05T05:40:15.719Z,22.10
2022-12-05T05:42:44.714Z,23.63
2022-12-05T05:45:14.881Z,20.93
2022-12-05T05:47:43.315Z,21.13
2022-12-05T05:50:17.927Z,21.47
2022-12-05T05:52:49.037Z,21.23
2022-12-05T05:55:18.699Z,21.90
2022-12-05T05:57:46.552Z,20.67
2022-12-05T06:00:15.801Z,21.67
2022-12-05T06:02:43.741Z,20.97
2022-12-05T06:05:11.869Z,21.77
2022-12-05T06:07:39.823Z,20.83
2022-12-05T06:10:08.855Z,19.90
2022-12-05T06:12:38.196Z,21.40
2022-12-05T06:15:07.331Z,20.57
2022-12-05T06:17:35.193Z,20.30
2022-12-05T06:20:03.370Z,20.17
2022-12-05T06:22:31.617Z,20.00
2022-12-05T06:24:59.872Z,20.17
2022-12-05T06:27:31.327Z,20.40
2022-12-05T06:30:01.091Z,20.10
2022-12-05T06:32:29.865Z,19.13
2022-12-05T06:34:57.922Z,19.87
2022-12-05T06:37:25.901Z,19.23
2022-12-05T06:39:53.749Z,18.57
2022-12-05T06:42:22.388Z,18.43
2022-12-05T06:44:50.391Z,18.90
2022-12-05T06:47:19.895Z,19.27
2022-12-05T06:49:47.795Z,19.80
2022-12-05T06:52:15.952Z,18.47
2022-12-05T06:54:43.785Z,18.50
2022-12-05T06:57:11.627Z,18.50
2022-12-05T06:59:39.574Z,18.63
2022-12-05T07:02:08.379Z,19.20
2022-12-05T07:04:37.861Z,18.20
2022-12-05T07:07:06.219Z,17.73
2022-12-05T07:09:52.330Z,17.87
2022-12-05T07:12:20.813Z,17.53
2022-12-05T07:14:49.886Z,18.30
2022-12-05T07:17:18.782Z,17.10
2022-12-05T07:19:50.624Z,18.30
2022-12-05T07:22:18.981Z,17.30
2022-12-05T07:24:47.369Z,16.43
2022-12-05T07:27:18.464Z,15.67
2022-12-05T07:29:48.516Z,16.67
2022-12-05T07:32:16.555Z,17.07
2022-12-05T07:34:44.402Z,16.10
2022-12-05T07:37:14.155Z,16.73
2022-12-05T07:39:42.175Z,15.83
2022-12-05T07:42:10.296Z,15.00
2022-12-05T07:44:38.366Z,16.83
2022-12-05T07:47:06.658Z,16.03
2022-12-05T07:49:34.711Z,15.70
2022-12-05T07:52:03.183Z,15.33
2022-12-05T07:54:32.642Z,15.33
2022-12-05T07:57:00.568Z,15.23
2022-12-05T07:59:28.629Z,14.37
2022-12-05T08:01:56.870Z,15.60
2022-12-05T08:04:25.531Z,14.63
2022-12-05T08:06:53.483Z,14.60
2022-12-05T08:09:21.495Z,13.27
2022-12-05T08:11:52.763Z,13.53
2022-12-05T08:14:21.645Z,13.87
2022-12-05T08:16:49.843Z,14.63
2022-12-05T08:19:17.913Z,13.83
2022-12-05T08:21:45.878Z,13.27
2022-12-05T08:24:14.273Z,12.60
2022-12-05T08:26:42.344Z,13.77
2022-12-05T08:29:13.733Z,13.20
2022-12-05T08:31:47.165Z,13.13
2022-12-05T08:34:16.078Z,12.90
2022-12-05T08:36:44.081Z,12.70
2022-12-05T08:39:15.898Z,12.97
2022-12-05T08:41:44.752Z,12.73
2022-12-05T08:44:16.992Z,12.27
2022-12-05T08:46:47.482Z,12.33
2022-12-05T08:49:15.938Z,11.30
2022-12-05T08:51:44.823Z,12.10
2022-12-05T08:54:13.206Z,12.27
2022-12-05T08:56:41.243Z,12.63
2022-12-05T08:59:09.430Z,11.40
2022-12-05T09:01:39.453Z,11.87
2022-12-05T09:04:08.944Z,12.00
2022-12-05T09:06:39.287Z,11.03
2022-12-05T09:09:09.367Z,11.93
2022-12-05T09:11:40.717Z,11.80
2022-12-05T09:14:08.858Z,11.63
2022-12-05T09:16:39.804Z,12.47
2022-12-05T09:19:13.272Z,11.13
2022-12-05T09:21:41.587Z,11.83
2022-12-05T09:24:10.974Z,12.07
2022-12-05T09:26:40.817Z,12.10
2022-12-05T09:29:14.155Z,11.83
2022-12-05T09:31:46.327Z,11.30
2022-12-05T09:34:15.403Z,11.47
2022-12-05T09:36:44.126Z,12.20
2022-12-05T09:39:12.441Z,11.90
2022-12-05T09:42:13.212Z,11.50
2022-12-05T09:44:47.090Z,11.80
2022-12-05T09:47:29.252Z,11.43
2022-12-05T09:50:02.514Z,11.80
2022-12-05T09:52:32.762Z,12.07
2022-12-05T09:55:06.613Z,11.40
2022-12-05T09:57:39.481Z,12.20
2022-12-05T10:00:09.056Z,11.60
2022-12-05T10:02:47.257Z,12.23
2022-12-05T10:05:24.072Z,12.07
2022-12-05T10:07:59.453Z,11.33
2022-12-05T10:10:35.855Z,11.70
2022-12-05T10:13:28.305Z,12.87
2022-12-05T10:15:59.417Z,13.27
2022-12-05T10:18:38.433Z,12.80
2022-12-05T10:21:16.778Z,13.43
2022-12-05T10:23:58.268Z,13.23
2022-12-05T10:26:31.447Z,12.83
2022-12-05T10:29:08.952Z,13.40
2022-12-05T10:31:39.665Z,12.87
2022-12-05T10:34:16.252Z,14.13
2022-12-05T10:36:54.563Z,14.33
2022-12-05T10:39:22.796Z,14.90
2022-12-05T10:41:52.016Z,15.73
2022-12-05T10:44:19.950Z,15.87
2022-12-05T10:46:48.061Z,14.37
2022-12-05T10:49:17.868Z,14.60
2022-12-05T10:51:46.168Z,14.30
2022-12-05T10:54:19.460Z,14.70
2022-12-05T10:56:48.880Z,14.47
2022-12-05T10:59:19.263Z,13.23
2022-12-05T11:01:52.304Z,13.70
2022-12-05T11:04:42.498Z,14.50
2022-12-05T11:07:26.133Z,14.17
2022-12-05T11:09:54.689Z,14.07
2022-12-05T11:12:25.997Z,14.27
2022-12-05T11:15:01.201Z,13.83
2022-12-05T11:17:33.146Z,13.83
2022-12-05T11:20:02.954Z,13.63
2022-12-05T11:22:33.609Z,14.60
2022-12-05T11:25:01.703Z,14.10
2022-12-05T11:27:31.581Z,14.33
2022-12-05T11:30:02.574Z,14.33
2022-12-05T11:32:33.210Z,13.77
2022-12-05T11:35:12.912Z,14.10
2022-12-05T11:37:45.990Z,13.77
2022-12-05T11:40:17.517Z,12.53
2022-12-05T11:43:14.633Z,15.17
2022-12-05T11:45:54.412Z,14.03
2022-12-05T11:48:47.570Z,13.63
2022-12-05T11:51:30.089Z,11.97
2022-12-05T11:54:42.106Z,12.93
2022-12-05T11:57:26.132Z,13.23
2022-12-05T12:00:09.101Z,12.57
2022-12-05T12:03:02.874Z,12.83
2022-12-05T12:05:38.773Z,12.77
2022-12-05T12:08:22.437Z,12.10
2022-12-05T12:11:03.649Z,13.27
2022-12-05T12:13:52.576Z,12.90
2022-12-05T12:16:31.129Z,13.07
2022-12-05T12:19:22.355Z,12.63
2022-12-05T12:22:05.518Z,14.20
2022-12-05T12:24:50.157Z,13.53
2022-12-05T12:27:34.716Z,13.47
2022-12-05T12:30:07.944Z,14.07
2022-12-05T12:32:44.800Z,13.63
2022-12-05T12:35:30.184Z,13.33
2022-12-05T12:38:18.419Z,13.73
2022-12-05T12:40:51.566Z,14.00
2022-12-05T12:46:35.324Z,14.80
2022-12-05T12:49:26.146Z,13.87
2022-12-05T12:51:55.977Z,14.70
2022-12-05T12:55:06.505Z,14.63
2022-12-05T12:57:50.696Z,15.03
2022-12-05T13:00:24.868Z,14.07
2022-12-05T13:02:58.199Z,14.70
2022-12-05T13:05:34.491Z,15.03
2022-12-05T13:08:07.772Z,14.80
2022-12-05T13:10:40.835Z,13.83
2022-12-05T13:13:15.026Z,16.33
2022-12-05T13:15:47.824Z,14.80
2022-12-05T13:18:19.447Z,14.63
2022-12-05T13:20:50.570Z,14.53
2022-12-05T13:23:22.510Z,14.43
2022-12-05T13:25:52.477Z,14.57
2022-12-05T13:28:28.659Z,14.33
2022-12-05T13:31:02.773Z,14.40
2022-12-05T13:33:35.166Z,14.10
2022-12-05T13:36:27.885Z,14.03
2022-12-05T13:39:22.882Z,14.80
2022-12-05T13:42:11.649Z,14.03
2022-12-05T13:44:44.819Z,14.97
2022-12-05T13:47:29.013Z,15.80
2022-12-05T13:50:02.489Z,15.43
2022-12-05T13:52:33.475Z,14.93
2022-12-05T13:55:06.607Z,15.00
2022-12-05T13:57:55.725Z,13.90
2022-12-05T14:00:43.346Z,14.33
2022-12-05T14:03:19.607Z,14.90
2022-12-05T14:05:50.004Z,14.63
2022-12-05T14:08:57.072Z,15.00
2022-12-05T14:11:25.043Z,14.97
2022-12-05T14:13:53.735Z,14.90
2022-12-05T14:16:50.756Z,16.33
2022-12-05T14:19:53.292Z,15.73
2022-12-05T14:22:38.492Z,15.47
2022-12-05T14:25:15.109Z,16.37
2022-12-05T14:27:57.096Z,16.27
2022-12-05T14:30:31.216Z,15.60
2022-12-05T14:33:02.898Z,15.83
2022-12-05T14:35:33.149Z,15.37
2022-12-05T14:38:04.072Z,15.13
2022-12-05T14:40:34.976Z,14.40
2022-12-05T14:43:06.014Z,15.57
2022-12-05T14:45:39.940Z,15.13
2022-12-05T14:48:31.879Z,14.63
2022-12-05T14:51:00.877Z,14.50
2022-12-05T14:53:36.767Z,14.67
2022-12-05T14:56:13.714Z,13.33
2022-12-05T14:58:48.365Z,12.73
2022-12-05T15:01:20.781Z,13.37
2022-12-05T15:04:17.626Z,12.93
2022-12-05T15:06:49.819Z,12.27
2022-12-05T15:09:38.929Z,12.60
2022-12-05T15:12:13.668Z,12.20
2022-12-05T15:14:49.010Z,13.53
2022-12-05T15:17:24.499Z,13.53
2022-12-05T15:20:03.705Z,13.83
2022-12-05T15:22:35.692Z,13.20
2022-12-05T15:25:16.890Z,13.17
2022-12-05T15:27:54.465Z,14.23
2022-12-05T15:30:22.440Z,14.87
2022-12-05T15:32:52.755Z,13.80
2022-12-05T15:35:28.038Z,13.93
2022-12-05T15:37:59.854Z,12.20
2022-12-05T15:40:37.125Z,13.07
2022-12-05T15:43:28.739Z,12.73
2022-12-05T15:46:25.067Z,12.33
2022-12-05T15:48:53.688Z,13.20
2022-12-05T15:51:28.359Z,11.87
2022-12-05T15:54:01.954Z,12.00
2022-12-05T15:56:33.832Z,12.70
2022-12-05T15:59:06.050Z,12.50
2022-12-05T16:01:42.254Z,13.53
2022-12-05T16:04:22.579Z,12.20
2022-12-05T16:06:56.477Z,13.57
2022-12-05T16:09:27.232Z,13.03
2022-12-05T16:11:57.298Z,12.50
2022-12-05T16:14:58.515Z,12.73
2022-12-05T16:17:21.574Z,12.60
2022-12-05T16:19:50.052Z,11.73
2022-12-05T16:22:24.082Z,12.53
2022-12-05T16:24:57.340Z,12.67
2022-12-05T16:27:27.391Z,13.27
2022-12-05T16:30:20.177Z,12.73
2022-12-05T16:32:50.079Z,13.27
2022-12-05T16:35:33.899Z,13.57
2022-12-05T16:38:20.917Z,14.43
2022-12-05T16:40:58.091Z,13.20
2022-12-05T16:43:43.865Z,13.67
2022-12-05T16:46:43.962Z,14.17
2022-12-05T16:49:19.341Z,12.97
2022-12-05T16:51:56.323Z,12.73
2022-12-05T16:54:25.687Z,14.10
2022-12-05T16:56:53.618Z,13.73
2022-12-05T16:59:26.715Z,12.83
2022-12-05T17:01:54.683Z,13.37
2022-12-05T17:04:22.765Z,12.70
2022-12-05T17:06:50.774Z,13.00
2022-12-05T17:09:18.719Z,13.33
2022-12-05T17:11:50.533Z,12.20
2022-12-05T17:14:19.900Z,12.97
2022-12-05T17:16:47.953Z,12.53
2022-12-05T17:19:16.524Z,12.10
2022-12-05T17:21:45.048Z,12.37
2022-12-05T17:24:17.346Z,12.57
2022-12-05T17:26:47.447Z,12.00
2022-12-05T17:29:15.453Z,11.43
2022-12-05T17:31:43.377Z,12.30
2022-12-05T17:34:17.584Z,12.83
2022-12-05T17:36:46.109Z,12.90
2022-12-05T17:39:14.455Z,12.73
2022-12-05T17:41:42.334Z,12.83
2022-12-05T17:44:15.084Z,12.33
2022-12-05T17:46:43.549Z,12.43
2022-12-05T17:49:14.112Z,14.17
2022-12-05T17:52:05.462Z,13.90
2022-12-05T17:54:30.497Z,13.63
2022-12-05T17:56:58.640Z,13.80
2022-12-05T17:59:28.453Z,14.27
2022-12-05T18:01:56.450Z,13.03
2022-12-05T18:04:24.361Z,14.30
2022-12-05T18:06:52.128Z,13.87
2022-12-05T18:09:20.137Z,13.93
2022-12-05T18:11:48.079Z,13.27
2022-12-05T18:14:16.375Z,13.33
2022-12-05T18:16:45.811Z,14.30
2022-12-05T18:19:13.775Z,13.23
2022-12-05T18:21:41.666Z,13.03
2022-12-05T18:24:09.589Z,13.43
2022-12-05T18:26:37.517Z,13.03
2022-12-05T18:29:05.602Z,13.40
2022-12-05T18:31:33.705Z,13.90
2022-12-05T18:34:03.002Z,12.67
2022-12-05T18:36:30.896Z,12.70
2022-12-05T18:38:59.260Z,13.07
2022-12-05T18:41:27.587Z,13.03
2022-12-05T18:43:55.704Z,13.10
2022-12-05T18:46:23.653Z,13.27
2022-12-05T18:48:52.022Z,13.57
2022-12-05T18:51:23.345Z,14.23
2022-12-05T18:53:53.558Z,12.80
2022-12-05T18:56:25.791Z,13.33
2022-12-05T18:58:55.707Z,13.33
2022-12-05T19:01:24.398Z,12.97
2022-12-05T19:03:53.058Z,13.57
2022-12-05T19:06:24.593Z,14.17
2022-12-05T19:08:54.694Z,14.40
2022-12-05T19:11:23.098Z,14.83
2022-12-05T19:13:51.141Z,14.57
2022-12-05T19:16:19.271Z,13.83
2022-12-05T19:18:47.726Z,14.87
2022-12-05T19:21:15.695Z,14.00
2022-12-05T19:23:45.055Z,14.73
2022-12-05T19:26:13.049Z,14.83
2022-12-05T19:28:41.119Z,13.93
2022-12-05T19:31:10.738Z,14.70
2022-12-05T19:33:40.555Z,14.43
2022-12-05T19:36:11.574Z,14.40
2022-12-05T19:38:40.769Z,14.43
2022-12-05T19:41:12.651Z,14.47
2022-12-05T19:43:40.940Z,14.20
2022-12-05T19:46:11.771Z,14.23
2022-12-05T19:48:40.286Z,13.37
2022-12-05T19:51:08.886Z,13.80
2022-12-05T19:53:39.007Z,14.17
2022-12-05T19:56:09.652Z,14.60
2022-12-05T19:58:39.768Z,14.00
2022-12-05T20:01:09.362Z,14.47
2022-12-05T20:03:37.692Z,14.23
2022-12-05T20:06:07.094Z,13.87
2022-12-05T20:08:45.850Z,13.53
2022-12-05T20:11:17.162Z,12.93
2022-12-05T20:13:47.966Z,13.53
2022-12-05T20:16:18.339Z,14.00
2022-12-05T20:18:47.089Z,13.70
2022-12-05T20:21:18.174Z,14.13
2022-12-05T20:23:46.779Z,13.77
2022-12-05T20:26:17.835Z,13.53
2022-12-05T20:28:47.838Z,13.40
2022-12-05T20:31:17.947Z,14.07
2022-12-05T20:33:46.225Z,13.97
2022-12-05T20:36:16.451Z,13.53
2022-12-05T20:38:45.076Z,14.10
2022-12-05T20:41:15.510Z,12.80
2022-12-05T20:43:43.928Z,14.10
2022-12-05T20:46:16.536Z,13.73
2022-12-05T20:48:44.856Z,13.47
2022-12-05T20:51:14.669Z,13.00
2022-12-05T20:53:43.785Z,13.53
2022-12-05T20:56:13.299Z,13.63
2022-12-05T20:58:42.141Z,13.87
2022-12-05T21:01:11.962Z,12.63
2022-12-05T21:03:43.010Z,12.90
2022-12-05T21:06:13.008Z,13.00
2022-12-05T21:08:40.984Z,12.87
2022-12-05T21:11:10.032Z,13.50
2022-12-05T21:13:38.292Z,13.10
2022-12-05T21:16:08.235Z,13.27
2022-12-05T21:18:37.175Z,12.83
2022-12-05T21:21:08.397Z,13.23
2022-12-05T21:23:36.401Z,13.33
2022-12-05T21:26:07.451Z,12.80
2022-12-05T21:28:36.477Z,12.77
2022-12-05T21:31:09.860Z,12.77
2022-12-05T21:33:38.625Z,13.10
2022-12-05T21:36:10.135Z,13.17
2022-12-05T21:38:38.184Z,13.13
2022-12-05T21:41:07.114Z,12.53
2022-12-05T21:43:36.300Z,12.90
2022-12-05T21:46:05.161Z,12.10
2022-12-05T21:48:34.298Z,12.50
2022-12-05T21:51:02.615Z,13.10
2022-12-05T21:53:31.960Z,11.70
2022-12-05T21:56:00.863Z,12.50
2022-12-05T21:58:29.002Z,12.10
2022-12-05T22:00:56.900Z,12.70
2022-12-05T22:03:25.223Z,12.30
2022-12-05T22:06:01.193Z,12.43
2022-12-05T22:08:32.469Z,12.20
2022-12-05T22:11:11.234Z,11.73
2022-12-05T22:13:39.816Z,11.63
2022-12-05T22:16:08.684Z,12.13
2022-12-05T22:18:37.349Z,12.90
2022-12-05T22:21:07.758Z,12.57
2022-12-05T22:23:37.080Z,12.97
2022-12-05T22:26:06.845Z,13.20
2022-12-05T22:28:35.699Z,12.20
2022-12-05T22:31:06.985Z,13.47
2022-12-05T22:33:36.760Z,12.50
2022-12-05T22:36:06.901Z,12.23
2022-12-05T22:38:37.596Z,11.87
2022-12-05T22:41:07.772Z,12.17
2022-12-05T22:43:37.573Z,12.07
2022-12-05T22:46:07.280Z,12.50
2022-12-05T22:48:36.489Z,12.13
2022-12-05T22:51:05.330Z,11.60
2022-12-05T22:53:33.227Z,13.13
2022-12-05T22:56:08.144Z,12.83
2022-12-05T22:58:37.080Z,13.23
2022-12-05T23:01:13.163Z,12.60
2022-12-05T23:03:42.096Z,12.33
2022-12-05T23:06:12.231Z,12.90
2022-12-05T23:08:40.832Z,12.27
2022-12-05T23:11:11.348Z,12.13
2022-12-05T23:13:40.352Z,12.43
2022-12-05T23:16:09.955Z,12.80
2022-12-05T23:18:47.777Z,12.60
2022-12-05T23:21:17.805Z,12.93
2022-12-05T23:23:46.004Z,12.67
2022-12-05T23:26:15.898Z,13.00
2022-12-05T23:28:44.931Z,12.43
2022-12-05T23:31:13.523Z,12.80
2022-12-05T23:33:41.845Z,13.30
2022-12-05T23:36:11.199Z,12.90
2022-12-05T23:38:41.063Z,12.80
2022-12-05T23:41:11.704Z,12.50
2022-12-05T23:43:41.648Z,13.40
2022-12-05T23:46:10.558Z,13.97
2022-12-05T23:48:39.465Z,12.93
2022-12-05T23:51:10.022Z,13.83
2022-12-05T23:53:40.087Z,13.03
2022-12-05T23:56:10.321Z,12.40
2022-12-05T23:58:39.856Z,13.73
